Time;durP1;ratioP1;P1;durP2;ratioP2;P2;SDS_P1;SDS_P2;PMS_P1;PMS_P2;Temp;Humidity;BMP_temperature;BMP_pressure;BME280_temperature;BME280_humidity;BME280_pressure;Samples;Min_cycle;Max_cycle;Signal;HPM_P1;HPM_P2
2022/10/14 00:00:32;;;;;;;21.90;12.07;;;9.40;99.90;;;;;;5106708;28;20243;-69
2022/10/14 00:02:59;;;;;;;20.07;11.40;;;9.40;99.90;;;;;;5112905;28;20219;-71
2022/10/14 00:05:25;;;;;;;17.87;11.87;;;9.40;99.90;;;;;;5110961;28;20592;-72
2022/10/14 00:07:52;;;;;;;22.70;12.53;;;9.40;99.90;;;;;;5112361;28;20216;-71
2022/10/14 00:10:20;;;;;;;22.77;11.87;;;9.40;99.90;;;;;;5109694;28;20204;-71
2022/10/14 00:12:49;;;;;;;23.00;12.17;;;9.30;99.90;;;;;;5112233;28;20203;-70
2022/10/14 00:15:16;;;;;;;18.97;11.93;;;9.40;99.90;;;;;;5108732;28;20565;-70
2022/10/14 00:17:43;;;;;;;16.67;11.53;;;9.30;99.90;;;;;;5104902;28;20655;-70
2022/10/14 00:20:11;;;;;;;20.83;12.67;;;9.30;99.90;;;;;;5109200;28;20219;-70
2022/10/14 00:22:38;;;;;;;21.73;12.00;;;9.30;99.90;;;;;;5112892;28;20223;-70
2022/10/14 00:25:05;;;;;;;19.67;11.73;;;9.30;99.90;;;;;;5111180;28;20215;-71
2022/10/14 00:27:33;;;;;;;20.63;11.93;;;9.30;99.90;;;;;;5099938;28;20239;-71
2022/10/14 00:30:00;;;;;;;25.00;12.40;;;9.30;99.90;;;;;;5109461;28;20200;-71
2022/10/14 00:32:27;;;;;;;20.40;12.20;;;9.30;99.90;;;;;;5107430;28;20563;-71
2022/10/14 00:34:53;;;;;;;20.13;11.93;;;9.30;99.90;;;;;;5112540;28;20208;-71
2022/10/14 00:37:20;;;;;;;21.90;12.93;;;9.30;99.90;;;;;;5112151;28;20216;-71
2022/10/14 00:39:47;;;;;;;22.20;12.17;;;9.20;99.90;;;;;;5111321;28;20592;-72
2022/10/14 00:42:15;;;;;;;18.57;12.43;;;9.30;99.90;;;;;;5109435;28;20328;-71
2022/10/14 00:45:05;;;;;;;23.07;12.30;;;9.20;99.90;;;;;;5112719;28;20200;-71
2022/10/14 00:47:33;;;;;;;22.47;11.83;;;9.20;99.90;;;;;;5111271;28;20202;-71
2022/10/14 00:50:00;;;;;;;19.90;12.03;;;9.10;99.90;;;;;;5109802;28;20199;-71
2022/10/14 00:52:27;;;;;;;19.00;12.23;;;9.10;99.90;;;;;;5109955;28;20203;-71
2022/10/14 00:54:57;;;;;;;19.07;12.00;;;9.00;99.90;;;;;;5111304;28;20211;-70
2022/10/14 00:57:25;;;;;;;20.60;12.30;;;9.00;99.90;;;;;;5110395;28;20211;-71
2022/10/14 00:59:56;;;;;;;23.97;11.80;;;8.90;99.90;;;;;;5110017;28;20224;-72
2022/10/14 01:02:24;;;;;;;25.07;12.37;;;8.90;99.90;;;;;;5111086;28;20203;-71
2022/10/14 01:04:51;;;;;;;24.27;12.53;;;8.90;99.90;;;;;;5110116;28;20204;-71
2022/10/14 01:07:26;;;;;;;18.23;12.17;;;8.90;99.90;;;;;;5110096;28;20227;-71
2022/10/14 01:10:01;;;;;;;22.70;11.90;;;8.80;99.90;;;;;;5108668;28;20195;-71
2022/10/14 01:12:36;;;;;;;21.43;12.07;;;8.80;99.90;;;;;;5108587;28;20674;-71
2022/10/14 01:15:11;;;;;;;20.20;12.10;;;8.80;99.90;;;;;;5111002;28;20207;-71
2022/10/14 01:17:52;;;;;;;19.33;11.47;;;8.70;99.90;;;;;;5097422;28;20207;-71
2022/10/14 01:20:57;;;;;;;17.70;11.47;;;8.80;99.90;;;;;;5103824;28;20211;-71
2022/10/14 01:24:00;;;;;;;18.40;11.80;;;8.70;99.90;;;;;;5109291;28;20237;-71
2022/10/14 01:26:46;;;;;;;18.77;11.93;;;8.60;99.90;;;;;;5107263;28;20236;-71
2022/10/14 01:29:27;;;;;;;23.00;12.23;;;8.60;99.90;;;;;;5106541;28;20540;-71
2022/10/14 01:32:01;;;;;;;21.07;12.37;;;8.60;99.90;;;;;;5101733;28;20195;-71
2022/10/14 01:34:34;;;;;;;20.50;12.07;;;8.50;99.90;;;;;;5109415;28;20211;-71
2022/10/14 01:37:05;;;;;;;18.13;11.53;;;8.50;99.90;;;;;;5109900;28;20211;-71
2022/10/14 01:39:39;;;;;;;21.57;12.20;;;8.40;99.90;;;;;;5105366;28;20209;-70
2022/10/14 01:42:10;;;;;;;21.57;12.43;;;8.50;99.90;;;;;;5100270;28;20207;-70
2022/10/14 01:44:41;;;;;;;23.07;12.27;;;8.50;99.90;;;;;;5109340;28;20192;-70
2022/10/14 01:47:12;;;;;;;17.63;12.17;;;8.50;99.90;;;;;;5110531;28;20200;-70
2022/10/14 01:49:44;;;;;;;20.37;12.57;;;8.50;99.90;;;;;;5109515;28;20704;-71
2022/10/14 01:52:18;;;;;;;20.10;10.80;;;8.50;99.90;;;;;;5111679;28;20210;-71
2022/10/14 01:54:47;;;;;;;17.80;11.57;;;8.50;99.90;;;;;;5109784;28;20590;-70
2022/10/14 01:57:19;;;;;;;22.50;12.57;;;8.50;99.90;;;;;;5108616;28;20200;-71
2022/10/14 01:59:47;;;;;;;20.30;12.80;;;8.50;99.90;;;;;;5109636;28;20573;-71
2022/10/14 02:02:17;;;;;;;21.50;12.53;;;8.50;99.90;;;;;;5110223;28;20218;-70
2022/10/14 02:04:44;;;;;;;20.60;11.93;;;8.50;99.90;;;;;;5108721;28;20219;-70
2022/10/14 02:07:13;;;;;;;21.07;12.20;;;8.50;99.90;;;;;;5110663;28;20204;-71
2022/10/14 02:09:48;;;;;;;21.83;12.27;;;8.50;99.90;;;;;;5108110;28;20216;-72
2022/10/14 02:12:28;;;;;;;20.07;12.00;;;8.50;99.90;;;;;;5099280;28;20206;-72
2022/10/14 02:15:07;;;;;;;17.07;11.57;;;8.50;99.90;;;;;;5105328;28;20195;-72
2022/10/14 02:17:43;;;;;;;18.53;11.93;;;8.40;99.90;;;;;;5100346;28;20452;-71
2022/10/14 02:20:20;;;;;;;24.73;12.57;;;8.40;99.90;;;;;;5108174;28;20226;-73
2022/10/14 02:22:51;;;;;;;22.37;12.93;;;8.30;99.90;;;;;;5109052;28;20227;-72
2022/10/14 02:25:23;;;;;;;19.23;12.23;;;8.30;99.90;;;;;;5110255;28;20214;-72
2022/10/14 02:27:52;;;;;;;20.03;12.47;;;8.40;99.90;;;;;;5107043;28;20211;-73
2022/10/14 02:30:20;;;;;;;20.67;11.87;;;8.30;99.90;;;;;;5109411;28;20222;-70
2022/10/14 02:32:50;;;;;;;22.77;13.63;;;8.30;99.90;;;;;;5107325;28;20234;-71
2022/10/14 02:35:19;;;;;;;19.60;11.87;;;8.40;99.90;;;;;;5110529;28;20219;-70
2022/10/14 02:37:47;;;;;;;19.37;12.80;;;8.40;99.90;;;;;;5108298;28;20211;-70
2022/10/14 02:40:17;;;;;;;22.33;12.00;;;8.40;99.90;;;;;;5108885;28;20223;-71
2022/10/14 02:42:44;;;;;;;21.17;12.43;;;8.40;99.90;;;;;;5108823;28;20211;-72
2022/10/14 02:45:13;;;;;;;20.10;12.10;;;8.40;99.90;;;;;;5110617;28;20735;-71
2022/10/14 02:47:39;;;;;;;21.87;13.83;;;8.40;99.90;;;;;;5106997;28;20619;-72
2022/10/14 02:50:09;;;;;;;20.50;13.30;;;8.40;99.90;;;;;;5109025;28;20196;-71
2022/10/14 02:52:35;;;;;;;21.17;12.50;;;8.50;99.90;;;;;;5108156;28;20215;-70
2022/10/14 02:55:02;;;;;;;26.30;13.27;;;8.40;99.90;;;;;;5109020;28;20443;-72
2022/10/14 02:57:29;;;;;;;20.80;12.53;;;8.40;99.90;;;;;;5108096;28;20626;-71
2022/10/14 02:59:56;;;;;;;24.37;12.20;;;8.50;99.90;;;;;;5107808;28;20738;-72
2022/10/14 03:02:22;;;;;;;17.53;12.33;;;8.50;99.90;;;;;;5109497;28;20196;-71
2022/10/14 03:04:49;;;;;;;22.13;12.70;;;8.40;99.90;;;;;;5105942;28;20216;-73
2022/10/14 03:07:17;;;;;;;18.60;12.37;;;8.40;99.90;;;;;;5109386;28;20219;-72
2022/10/14 03:09:44;;;;;;;23.27;12.33;;;8.40;99.90;;;;;;5108882;28;20214;-71
2022/10/14 03:12:11;;;;;;;21.30;13.07;;;8.40;99.90;;;;;;5108544;28;20250;-72
2022/10/14 03:14:38;;;;;;;21.57;13.20;;;8.40;99.90;;;;;;5107336;28;20204;-71
2022/10/14 03:17:05;;;;;;;24.40;13.80;;;8.30;99.90;;;;;;5100830;28;20220;-71
2022/10/14 03:19:31;;;;;;;20.00;13.03;;;8.30;99.90;;;;;;5108464;28;20211;-70
2022/10/14 03:21:58;;;;;;;20.53;13.07;;;8.40;99.90;;;;;;5108084;28;20621;-71
2022/10/14 03:24:26;;;;;;;24.00;12.97;;;8.30;99.90;;;;;;5109274;28;20571;-70
2022/10/14 03:26:53;;;;;;;19.90;12.77;;;8.30;99.90;;;;;;5108532;28;20258;-70
2022/10/14 03:29:20;;;;;;;24.10;13.13;;;8.30;99.90;;;;;;5107690;28;20207;-71
2022/10/14 03:31:46;;;;;;;29.27;14.37;;;8.30;99.90;;;;;;5110453;28;20217;-71
2022/10/14 03:34:13;;;;;;;24.40;12.57;;;8.20;99.90;;;;;;5108160;28;20581;-71
2022/10/14 03:36:40;;;;;;;21.43;12.77;;;8.20;99.90;;;;;;5111493;28;20208;-71
2022/10/14 03:39:07;;;;;;;20.37;13.17;;;8.20;99.90;;;;;;5112260;28;20208;-70
2022/10/14 03:41:35;;;;;;;22.73;14.20;;;8.20;99.90;;;;;;5114506;28;20223;-70
2022/10/14 03:44:02;;;;;;;23.87;14.13;;;8.20;99.90;;;;;;5111071;28;20211;-69
2022/10/14 03:46:28;;;;;;;21.40;14.00;;;8.20;99.90;;;;;;5114118;28;20279;-70
2022/10/14 03:48:55;;;;;;;21.63;13.47;;;8.20;99.90;;;;;;5113245;28;20207;-70
2022/10/14 03:51:22;;;;;;;20.10;12.90;;;8.30;99.90;;;;;;5112744;28;20230;-70
2022/10/14 03:53:49;;;;;;;23.03;13.50;;;8.20;99.90;;;;;;5111899;28;20212;-70
2022/10/14 03:56:16;;;;;;;21.57;14.50;;;8.20;99.90;;;;;;5111103;28;20215;-70
2022/10/14 03:58:44;;;;;;;22.17;12.83;;;8.30;99.90;;;;;;5112483;28;20223;-69
2022/10/14 04:01:11;;;;;;;23.90;13.23;;;8.20;99.90;;;;;;5111585;28;20231;-73
2022/10/14 04:03:37;;;;;;;20.27;12.93;;;8.20;99.90;;;;;;5111767;28;20200;-72
2022/10/14 04:06:05;;;;;;;19.20;13.17;;;8.20;99.90;;;;;;5112697;28;20227;-73
2022/10/14 04:08:31;;;;;;;18.90;12.63;;;8.20;99.90;;;;;;5112869;28;20207;-72
2022/10/14 04:10:58;;;;;;;18.70;13.00;;;8.20;99.90;;;;;;5111078;28;20560;-71
2022/10/14 04:13:25;;;;;;;21.13;13.33;;;8.10;99.90;;;;;;5110112;28;20208;-72
2022/10/14 04:15:53;;;;;;;21.73;13.73;;;8.20;99.90;;;;;;5112129;28;20703;-72
2022/10/14 04:18:20;;;;;;;20.03;13.30;;;8.20;99.90;;;;;;5112974;28;20664;-72
2022/10/14 04:20:47;;;;;;;21.17;13.43;;;8.20;99.90;;;;;;5111318;28;20231;-72
2022/10/14 04:23:13;;;;;;;24.40;14.27;;;8.20;99.90;;;;;;5112528;28;20234;-72
2022/10/14 04:25:40;;;;;;;22.47;13.97;;;8.10;99.90;;;;;;5110581;28;21305;-72
2022/10/14 04:28:07;;;;;;;28.97;14.60;;;8.10;99.90;;;;;;5110996;28;20207;-69
2022/10/14 04:30:34;;;;;;;22.47;12.53;;;8.20;99.90;;;;;;5107668;28;20199;-70
2022/10/14 04:33:02;;;;;;;22.70;13.83;;;8.20;99.90;;;;;;5108334;28;20204;-71
2022/10/14 04:35:29;;;;;;;26.03;13.50;;;8.20;99.90;;;;;;5104965;28;20653;-71
2022/10/14 04:37:55;;;;;;;25.50;13.70;;;8.20;99.90;;;;;;5112432;28;20306;-71
2022/10/14 04:40:24;;;;;;;20.67;14.10;;;8.10;99.90;;;;;;5107845;28;20646;-71
2022/10/14 04:42:55;;;;;;;20.70;13.33;;;8.20;99.90;;;;;;5105176;28;20644;-68
2022/10/14 04:45:21;;;;;;;22.77;13.57;;;8.10;99.90;;;;;;5108256;28;20303;-69
2022/10/14 04:47:48;;;;;;;24.83;17.38;;;8.10;99.90;;;;;;5105178;28;20457;-72
2022/10/14 04:50:17;;;;;;;24.45;17.17;;;8.10;99.90;;;;;;5105107;27;20466;-67
2022/10/14 04:52:44;;;;;;;25.27;17.33;;;8.10;99.90;;;;;;5107655;28;20461;-65
2022/10/14 04:55:12;;;;;;;24.50;15.27;;;8.00;99.90;;;;;;5109390;28;20450;-69
2022/10/14 04:57:42;;;;;;;18.13;13.63;;;8.00;99.90;;;;;;5109064;28;20242;-68
2022/10/14 05:00:10;;;;;;;24.08;15.55;;;7.90;99.90;;;;;;5104409;28;20457;-66
2022/10/14 05:02:37;;;;;;;23.55;17.10;;;7.90;99.90;;;;;;5108650;28;20905;-67
2022/10/14 05:05:04;;;;;;;24.05;17.83;;;8.00;99.90;;;;;;5107785;28;20443;-67
2022/10/14 05:07:32;;;;;;;25.05;16.10;;;7.90;99.90;;;;;;5108386;28;20991;-67
2022/10/14 05:10:00;;;;;;;27.43;17.73;;;7.90;99.90;;;;;;5106919;28;20461;-66
2022/10/14 05:12:27;;;;;;;27.30;14.97;;;8.00;99.90;;;;;;5105107;28;21303;-68
2022/10/14 05:14:54;;;;;;;25.87;14.90;;;8.00;99.90;;;;;;5105714;28;20204;-67
2022/10/14 05:17:21;;;;;;;20.93;13.70;;;8.00;99.90;;;;;;5101972;28;20227;-66
2022/10/14 05:19:48;;;;;;;23.37;14.33;;;8.00;99.90;;;;;;5110848;28;20204;-71
2022/10/14 05:22:15;;;;;;;21.03;13.77;;;8.00;99.90;;;;;;5106971;28;20259;-67
2022/10/14 05:24:43;;;;;;;20.00;13.93;;;8.00;99.90;;;;;;5111592;28;20570;-68
2022/10/14 05:27:10;;;;;;;21.70;14.13;;;8.00;99.90;;;;;;5108732;28;20305;-69
2022/10/14 05:29:37;;;;;;;20.43;13.13;;;8.00;99.90;;;;;;5107747;28;20214;-68
2022/10/14 05:32:04;;;;;;;26.73;13.83;;;8.10;99.90;;;;;;5100344;28;20204;-68
2022/10/14 05:34:30;;;;;;;20.47;13.97;;;8.00;99.90;;;;;;5107724;28;20196;-68
2022/10/14 05:36:57;;;;;;;21.67;14.33;;;8.10;99.90;;;;;;5108790;28;20207;-69
2022/10/14 05:39:24;;;;;;;24.10;14.40;;;8.20;99.90;;;;;;5106468;28;20212;-66
2022/10/14 05:41:52;;;;;;;22.53;14.83;;;8.20;99.90;;;;;;5109388;28;20556;-68
2022/10/14 05:44:19;;;;;;;25.23;13.50;;;8.10;99.90;;;;;;5110628;28;20656;-67
2022/10/14 05:46:45;;;;;;;22.77;13.57;;;8.30;99.90;;;;;;5109903;28;20211;-69
2022/10/14 05:49:13;;;;;;;22.80;14.60;;;8.30;99.90;;;;;;5106782;28;20216;-69
2022/10/14 05:51:39;;;;;;;20.10;13.57;;;8.40;99.90;;;;;;5109042;28;22081;-68
2022/10/14 05:54:06;;;;;;;21.70;13.37;;;8.40;99.90;;;;;;5109692;28;20207;-68
2022/10/14 05:56:33;;;;;;;23.97;13.77;;;8.50;99.90;;;;;;5109577;28;20200;-69
2022/10/14 05:59:01;;;;;;;24.03;13.87;;;8.50;99.90;;;;;;5108647;28;20207;-68
2022/10/14 06:01:28;;;;;;;21.73;13.93;;;8.60;99.90;;;;;;5109786;28;20231;-70
2022/10/14 06:03:54;;;;;;;24.17;13.83;;;8.70;99.90;;;;;;5111271;28;20570;-69
2022/10/14 06:06:21;;;;;;;21.03;14.07;;;8.70;99.90;;;;;;5110681;28;20211;-68
2022/10/14 06:08:48;;;;;;;23.63;14.57;;;8.80;99.90;;;;;;5109163;28;20204;-68
2022/10/14 06:11:15;;;;;;;26.47;14.43;;;8.90;99.90;;;;;;5109900;28;20208;-69
2022/10/14 06:13:41;;;;;;;22.83;13.90;;;8.90;99.90;;;;;;5109186;28;20204;-69
2022/10/14 06:16:11;;;;;;;22.97;14.07;;;8.90;99.90;;;;;;5108550;28;20235;-69
2022/10/14 06:18:38;;;;;;;20.13;14.03;;;9.00;99.90;;;;;;5108864;28;20211;-69
2022/10/14 06:21:06;;;;;;;22.10;14.57;;;9.00;99.90;;;;;;5106675;28;20246;-68
2022/10/14 06:23:32;;;;;;;28.03;14.37;;;9.10;99.90;;;;;;5109876;28;20231;-68
2022/10/14 06:26:03;;;;;;;26.00;15.00;;;9.10;99.90;;;;;;5108982;28;20243;-72
2022/10/14 06:28:30;;;;;;;21.23;15.17;;;9.30;99.90;;;;;;5107808;28;20668;-70
2022/10/14 06:30:57;;;;;;;22.77;14.80;;;9.20;99.90;;;;;;5108724;28;20740;-69
2022/10/14 06:33:27;;;;;;;24.30;14.67;;;9.40;99.90;;;;;;5110538;28;20212;-69
2022/10/14 06:35:54;;;;;;;24.57;15.50;;;9.40;99.90;;;;;;5105678;28;20739;-68
2022/10/14 06:38:21;;;;;;;28.20;15.60;;;9.50;99.90;;;;;;5110801;28;20239;-70
2022/10/14 06:40:50;;;;;;;20.93;15.13;;;9.60;99.90;;;;;;5107979;28;20200;-66
2022/10/14 06:43:17;;;;;;;21.80;14.50;;;9.60;99.90;;;;;;5110079;28;20204;-67
2022/10/14 06:45:43;;;;;;;22.63;15.00;;;9.60;99.90;;;;;;5108060;28;20214;-72
2022/10/14 06:48:10;;;;;;;23.27;14.23;;;9.60;99.90;;;;;;5109474;28;20220;-72
2022/10/14 06:50:38;;;;;;;23.77;14.37;;;9.70;99.90;;;;;;5109128;28;20548;-69
2022/10/14 06:53:06;;;;;;;26.10;15.10;;;9.70;99.90;;;;;;5108389;28;20206;-68
2022/10/14 06:55:32;;;;;;;21.97;15.40;;;9.70;99.90;;;;;;5107191;28;20294;-67
2022/10/14 06:57:59;;;;;;;26.07;15.40;;;9.80;99.90;;;;;;5103424;28;20588;-69
2022/10/14 07:00:26;;;;;;;20.30;14.83;;;9.80;99.90;;;;;;5105687;28;20459;-69
2022/10/14 07:02:53;;;;;;;27.30;14.30;;;9.90;99.90;;;;;;5109885;27;20238;-72
2022/10/14 07:05:19;;;;;;;26.60;14.70;;;10.00;99.90;;;;;;5105318;27;20211;-70
2022/10/14 07:07:47;;;;;;;24.87;14.63;;;10.10;99.90;;;;;;5103378;28;20207;-72
2022/10/14 07:10:14;;;;;;;20.00;15.30;;;10.10;99.90;;;;;;5098053;28;20200;-72
2022/10/14 07:12:41;;;;;;;24.03;15.40;;;10.10;99.90;;;;;;5101680;28;20204;-70
2022/10/14 07:15:09;;;;;;;22.27;15.17;;;10.20;99.90;;;;;;5105187;28;20609;-71
2022/10/14 07:17:36;;;;;;;23.97;13.87;;;10.20;99.90;;;;;;5100445;28;20204;-70
2022/10/14 07:20:03;;;;;;;25.33;14.87;;;10.30;99.90;;;;;;5102048;28;20204;-70
2022/10/14 07:22:31;;;;;;;23.27;14.63;;;10.30;99.90;;;;;;5103081;28;20235;-72
2022/10/14 07:25:00;;;;;;;23.60;15.30;;;10.30;99.90;;;;;;5102035;28;20204;-71
2022/10/14 07:27:26;;;;;;;21.43;15.27;;;10.40;99.90;;;;;;5103993;28;20294;-71
2022/10/14 07:29:53;;;;;;;22.77;14.27;;;10.50;99.90;;;;;;5109758;28;20203;-70
2022/10/14 07:32:20;;;;;;;21.73;15.27;;;10.50;99.90;;;;;;5105624;28;20746;-72
2022/10/14 07:34:47;;;;;;;21.83;14.70;;;10.60;99.90;;;;;;5104101;28;20664;-71
2022/10/14 07:37:13;;;;;;;22.10;14.40;;;10.70;99.90;;;;;;5096626;28;20205;-72
2022/10/14 07:39:40;;;;;;;27.30;16.27;;;10.80;99.90;;;;;;5103015;28;20200;-72
2022/10/14 07:42:08;;;;;;;22.40;14.63;;;11.00;99.90;;;;;;5102511;28;20248;-70
2022/10/14 07:44:36;;;;;;;21.73;14.27;;;11.20;99.90;;;;;;5100588;28;20211;-71
2022/10/14 07:47:03;;;;;;;22.23;15.10;;;11.50;99.90;;;;;;5099167;28;20214;-71
2022/10/14 07:49:29;;;;;;;27.40;14.93;;;11.80;99.90;;;;;;5104933;28;20240;-71
2022/10/14 07:51:56;;;;;;;22.23;14.80;;;12.00;99.90;;;;;;5108409;28;20573;-71
2022/10/14 07:54:28;;;;;;;23.93;14.07;;;12.10;99.90;;;;;;5103763;28;20692;-72
2022/10/14 07:56:56;;;;;;;24.83;14.90;;;12.20;99.90;;;;;;5106551;28;20223;-71
2022/10/14 07:59:25;;;;;;;23.37;14.13;;;12.40;99.90;;;;;;5109134;28;20218;-70
2022/10/14 08:01:54;;;;;;;23.57;14.13;;;12.50;99.90;;;;;;5096953;28;20219;-72
2022/10/14 08:04:21;;;;;;;21.37;13.80;;;12.70;99.90;;;;;;5102797;28;20214;-71
2022/10/14 08:06:48;;;;;;;26.30;14.27;;;12.90;99.90;;;;;;5100535;28;20201;-72
2022/10/14 08:09:15;;;;;;;21.10;13.80;;;13.10;99.90;;;;;;5100908;28;20266;-72
2022/10/14 08:11:43;;;;;;;23.97;13.70;;;13.10;99.90;;;;;;5104446;28;20218;-72
2022/10/14 08:14:10;;;;;;;20.17;13.53;;;13.20;99.90;;;;;;5104087;28;20208;-73
2022/10/14 08:16:39;;;;;;;20.63;13.90;;;13.40;99.90;;;;;;5103153;28;20219;-72
2022/10/14 08:19:08;;;;;;;19.80;14.20;;;13.60;99.90;;;;;;5104198;28;20576;-71
2022/10/14 08:21:35;;;;;;;20.80;13.50;;;13.90;99.90;;;;;;5098231;28;20224;-71
2022/10/14 08:24:02;;;;;;;20.87;13.50;;;14.20;99.90;;;;;;5104054;28;20277;-72
2022/10/14 08:26:31;;;;;;;21.03;13.20;;;14.50;99.90;;;;;;5106853;28;20228;-71
2022/10/14 08:28:58;;;;;;;18.07;13.57;;;14.70;99.90;;;;;;5108283;28;20232;-70
2022/10/14 08:31:25;;;;;;;20.37;13.50;;;14.90;99.90;;;;;;5096787;28;20231;-71
2022/10/14 08:33:53;;;;;;;21.60;13.10;;;15.20;99.90;;;;;;5105813;27;20967;-71
2022/10/14 08:36:20;;;;;;;21.20;13.67;;;15.40;99.90;;;;;;5108719;27;20300;-71
2022/10/14 08:38:48;;;;;;;18.03;13.87;;;15.60;99.90;;;;;;5109747;27;20215;-72
2022/10/14 08:41:43;;;;;;;21.57;13.20;;;15.60;99.90;;;;;;5105234;28;20208;-71
2022/10/14 08:44:16;;;;;;;21.00;14.47;;;15.70;99.90;;;;;;5104070;28;20669;-71
2022/10/14 08:46:46;;;;;;;19.97;13.80;;;15.70;99.90;;;;;;5105238;28;20204;-71
2022/10/14 08:49:22;;;;;;;20.53;14.00;;;15.80;99.90;;;;;;5105037;28;20215;-71
2022/10/14 08:51:53;;;;;;;19.83;13.27;;;16.00;99.90;;;;;;5110476;28;20188;-71
2022/10/14 08:54:30;;;;;;;20.42;13.55;;;16.30;99.90;;;;;;5109141;27;20674;-71
2022/10/14 08:56:58;;;;;;;19.83;13.57;;;16.50;99.90;;;;;;5095854;28;20200;-71
2022/10/14 08:59:26;;;;;;;20.13;13.65;;;16.70;99.90;;;;;;5108125;28;20218;-71
2022/10/14 09:01:57;;;;;;;20.25;13.57;;;16.70;99.90;;;;;;5109278;28;20615;-71
2022/10/14 09:04:25;;;;;;;17.63;12.48;;;16.70;99.90;;;;;;5106337;28;20579;-71
2022/10/14 09:06:54;;;;;;;18.95;13.10;;;17.40;99.90;;;;;;5109618;28;20200;-71
2022/10/14 09:09:26;;;;;;;19.63;13.15;;;18.40;99.90;;;;;;5107740;28;20208;-71
2022/10/14 09:11:58;;;;;;;18.98;12.40;;;19.10;99.60;;;;;;5107364;28;20552;-71
2022/10/14 09:14:27;;;;;;;17.35;13.23;;;19.60;98.60;;;;;;5104730;28;20563;-70
2022/10/14 09:16:59;;;;;;;17.98;12.07;;;20.30;95.60;;;;;;5107738;27;20211;-72
2022/10/14 09:19:32;;;;;;;18.42;12.82;;;20.70;94.30;;;;;;5102978;28;20200;-71
2022/10/14 09:22:00;;;;;;;15.98;12.30;;;21.20;92.80;;;;;;5104332;28;20672;-73
2022/10/14 09:24:31;;;;;;;17.70;13.48;;;22.40;92.00;;;;;;5106502;28;20200;-70
2022/10/14 09:27:02;;;;;;;19.13;12.30;;;23.80;85.70;;;;;;5107838;28;20242;-73
2022/10/14 09:29:33;;;;;;;20.08;11.98;;;25.00;76.80;;;;;;5104915;28;20230;-73
2022/10/14 09:32:04;;;;;;;16.90;11.45;;;25.90;68.00;;;;;;5101234;28;20210;-71
2022/10/14 09:34:36;;;;;;;18.83;12.00;;;26.00;62.30;;;;;;5105650;28;20212;-71
2022/10/14 09:37:24;;;;;;;16.08;11.23;;;25.40;61.50;;;;;;5108667;28;20204;-72
2022/10/14 09:39:53;;;;;;;16.83;11.40;;;24.60;61.30;;;;;;5110247;28;20652;-72
2022/10/14 09:42:24;;;;;;;17.35;11.60;;;23.60;62.00;;;;;;5101194;28;20212;-72
2022/10/14 09:45:06;;;;;;;18.45;12.00;;;22.60;63.90;;;;;;5099759;28;20641;-71
2022/10/14 09:47:40;;;;;;;17.15;11.73;;;21.70;66.00;;;;;;5108934;28;20200;-73
2022/10/14 09:50:13;;;;;;;19.20;13.07;;;21.00;68.20;;;;;;5104831;28;20580;-72
2022/10/14 09:52:40;;;;;;;18.27;11.50;;;20.60;71.40;;;;;;5102780;28;20204;-72
2022/10/14 09:55:18;;;;;;;21.00;12.20;;;20.20;70.90;;;;;;5109481;28;20208;-70
2022/10/14 09:57:45;;;;;;;17.75;11.77;;;19.60;72.10;;;;;;5110266;28;20245;-72
2022/10/14 10:00:27;;;;;;;19.58;11.57;;;19.10;74.00;;;;;;5110489;28;20295;-71
2022/10/14 10:02:55;;;;;;;19.20;10.98;;;18.60;76.50;;;;;;5103357;28;20219;-71
2022/10/14 10:05:26;;;;;;;18.77;12.02;;;18.30;78.30;;;;;;5102053;28;20215;-71
2022/10/14 10:08:03;;;;;;;19.30;11.95;;;18.10;79.90;;;;;;5100064;28;20200;-72
2022/10/14 10:10:30;;;;;;;15.52;12.07;;;17.80;81.40;;;;;;5101080;28;20214;-72
2022/10/14 10:12:57;;;;;;;16.55;12.63;;;17.60;82.70;;;;;;5108006;28;20733;-71
2022/10/14 10:15:24;;;;;;;21.35;12.50;;;17.50;84.40;;;;;;5105824;28;20204;-72
2022/10/14 10:17:52;;;;;;;21.10;12.80;;;17.30;85.90;;;;;;5104087;28;20204;-72
2022/10/14 10:20:26;;;;;;;19.70;12.65;;;17.20;86.70;;;;;;5099939;28;20199;-72
2022/10/14 10:22:56;;;;;;;21.77;13.48;;;17.20;87.70;;;;;;5100961;28;20227;-73
2022/10/14 10:25:26;;;;;;;17.48;12.88;;;17.10;88.00;;;;;;5103105;28;20211;-72
2022/10/14 10:27:56;;;;;;;19.55;13.02;;;17.00;89.30;;;;;;5104166;28;20196;-72
2022/10/14 10:30:26;;;;;;;21.75;12.95;;;16.80;90.70;;;;;;5099401;28;20203;-72
2022/10/14 10:33:21;;;;;;;22.80;13.10;;;16.80;90.90;;;;;;5107555;28;20211;-71
2022/10/14 10:36:01;;;;;;;21.13;12.65;;;16.80;91.50;;;;;;5095387;28;20209;-72
2022/10/14 10:38:34;;;;;;;17.95;13.68;;;16.90;91.70;;;;;;5101623;28;20195;-72
2022/10/14 10:41:21;;;;;;;19.63;14.10;;;16.90;92.20;;;;;;5104726;28;20716;-73
2022/10/14 10:44:14;;;;;;;20.67;12.65;;;17.60;96.10;;;;;;5102819;28;20208;-70
2022/10/14 10:46:55;;;;;;;17.95;12.63;;;18.90;92.80;;;;;;5108924;28;20188;-69
2022/10/14 10:49:45;;;;;;;18.17;12.23;;;20.20;93.30;;;;;;5107417;28;20208;-71
2022/10/14 10:52:22;;;;;;;17.13;12.05;;;21.80;83.70;;;;;;5102469;28;20208;-72
2022/10/14 10:54:57;;;;;;;17.05;12.98;;;22.00;78.30;;;;;;5106413;28;20215;-71
2022/10/14 10:57:36;;;;;;;19.88;13.60;;;21.60;77.70;;;;;;5094368;28;20214;-73
2022/10/14 11:00:08;;;;;;;20.05;12.57;;;21.20;79.40;;;;;;5106986;28;20196;-71
2022/10/14 11:03:02;;;;;;;18.67;12.70;;;22.10;82.60;;;;;;5108149;28;20212;-73
2022/10/14 11:05:52;;;;;;;19.10;13.52;;;23.00;75.40;;;;;;5111274;28;20207;-73
2022/10/14 11:12:06;;;;;;;16.98;12.93;;;24.10;69.60;;;;;;5102248;28;20249;-72
2022/10/14 11:14:59;;;;;;;18.73;12.40;;;23.50;69.40;;;;;;5100989;28;20646;-74
2022/10/14 11:17:32;;;;;;;19.88;12.70;;;23.90;71.10;;;;;;5091956;28;20201;-72
2022/10/14 11:20:07;;;;;;;15.73;12.48;;;25.20;71.10;;;;;;5109929;28;20292;-72
2022/10/14 11:22:57;;;;;;;19.23;12.98;;;27.00;64.70;;;;;;5109395;28;20249;-70
2022/10/14 11:25:40;;;;;;;18.23;13.20;;;28.40;58.00;;;;;;5105427;28;20204;-71
2022/10/14 11:28:17;;;;;;;17.70;13.10;;;28.80;56.40;;;;;;5105396;28;20200;-72
2022/10/14 11:30:49;;;;;;;22.17;13.07;;;28.70;54.20;;;;;;5102255;28;20204;-72
2022/10/14 11:33:41;;;;;;;18.13;12.45;;;28.20;54.50;;;;;;5094978;28;20191;-71
2022/10/14 11:36:20;;;;;;;16.27;12.45;;;27.40;54.70;;;;;;5101583;28;20195;-72
2022/10/14 11:38:58;;;;;;;19.65;13.02;;;26.80;56.70;;;;;;5107722;28;20499;-72
2022/10/14 11:41:34;;;;;;;17.77;12.75;;;26.80;58.10;;;;;;5101065;28;20199;-72
2022/10/14 11:44:09;;;;;;;14.60;12.18;;;27.30;56.70;;;;;;5104925;28;20208;-71
2022/10/14 11:46:41;;;;;;;14.40;12.23;;;28.00;54.80;;;;;;5099481;28;20210;-72
2022/10/14 11:49:18;;;;;;;15.40;12.43;;;28.50;54.40;;;;;;5100101;28;20210;-71
2022/10/14 11:51:49;;;;;;;16.75;11.93;;;27.90;52.90;;;;;;5096076;28;20204;-73
2022/10/14 11:54:22;;;;;;;17.55;11.73;;;26.70;54.00;;;;;;5102884;28;20188;-71
2022/10/14 11:56:56;;;;;;;18.40;13.10;;;25.50;56.10;;;;;;5103489;28;20210;-71
2022/10/14 11:59:43;;;;;;;17.10;13.65;;;24.20;58.70;;;;;;5107112;28;20204;-72
2022/10/14 12:02:31;;;;;;;18.38;14.10;;;23.20;60.10;;;;;;5106179;28;20215;-71
2022/10/14 12:05:04;;;;;;;16.58;12.77;;;22.30;62.80;;;;;;5107001;28;20206;-72
2022/10/14 12:07:39;;;;;;;17.17;12.80;;;21.60;64.60;;;;;;5108709;28;20204;-72
2022/10/14 12:10:15;;;;;;;19.02;13.25;;;21.00;66.70;;;;;;5104187;28;20196;-71
2022/10/14 12:12:43;;;;;;;17.00;13.85;;;20.50;68.50;;;;;;5099222;28;20204;-72
2022/10/14 12:15:18;;;;;;;17.80;12.95;;;20.10;70.10;;;;;;5111763;28;20207;-74
2022/10/14 12:17:49;;;;;;;17.95;13.15;;;19.80;72.10;;;;;;5101589;28;20595;-72
2022/10/14 12:20:23;;;;;;;17.52;13.32;;;19.60;73.80;;;;;;5106057;28;20204;-72
2022/10/14 12:22:51;;;;;;;16.83;12.38;;;19.80;75.90;;;;;;5099398;28;20229;-71
2022/10/14 12:25:23;;;;;;;17.75;13.27;;;21.20;82.20;;;;;;5106403;28;20208;-72
2022/10/14 12:27:51;;;;;;;16.00;12.20;;;23.00;73.40;;;;;;5103908;28;20700;-72
2022/10/14 12:30:39;;;;;;;14.75;12.60;;;24.40;67.60;;;;;;5109608;28;20761;-73
2022/10/14 12:33:08;;;;;;;19.50;13.27;;;25.40;63.30;;;;;;5098687;28;20214;-72
2022/10/14 12:35:58;;;;;;;17.50;13.73;;;25.10;61.30;;;;;;5107701;28;20621;-72
2022/10/14 12:38:27;;;;;;;17.67;12.98;;;24.50;62.30;;;;;;5107266;28;20200;-73
2022/10/14 12:40:54;;;;;;;16.92;13.57;;;23.60;63.30;;;;;;5105311;28;20525;-71
2022/10/14 12:43:25;;;;;;;18.70;13.05;;;23.00;65.30;;;;;;5107504;28;20226;-71
2022/10/14 12:46:13;;;;;;;17.05;12.48;;;22.20;67.30;;;;;;5108817;28;20708;-72
2022/10/14 12:48:50;;;;;;;18.90;13.18;;;21.70;69.60;;;;;;5106523;28;20618;-72
2022/10/14 12:51:20;;;;;;;17.13;12.18;;;21.30;71.00;;;;;;5109240;28;20781;-72
2022/10/14 12:54:03;;;;;;;17.85;13.70;;;20.90;72.10;;;;;;5103138;28;20196;-72